Kinjyu Maru — JD3091 — position and weather

sailwx.info

Track history (hours):
 
Tides and Currents Weather Stations Pressure Air Temp Water Temp Dewpoint Dewpoint Depression Visibility Wind Speed Wind Dir Waves Ship Positions

Kinjyu Maru

Last reported at 2017-Sep-29 01:36 UTC. Time now 2017-Oct-17 18:58 UTC.
Position N 34°60' E 139°26'.
Warning: this ship's position is 18 days out of date.

Length 59 m; draft 3.8 m.

Type: Cargo ship. MMSI: 431001588.

Date/timePositionNaut miles runAvg speedWind from/ knotsBaromVisibWave heightAir tempDewpointWater temp
2017-Sep-29 01:36N 34°60' E 139°26'2 8.6
2017-Sep-29 01:23N 35°01' E 139°28'3 8.8
2017-Sep-29 01:00N 35°03' E 139°32'5 9.8
2017-Sep-29 00:30N 35°05' E 139°37'510.8
2017-Sep-29 00:00N 35°08' E 139°42'510.6
2017-Sep-28 23:30N 35°12' E 139°46'5 9.9
2017-Sep-28 23:00N 35°17' E 139°45'5 9.8
2017-Sep-28 22:30N 35°22' E 139°42'5 9.6
2017-Sep-28 22:00N 35°26' E 139°45'510.6
2017-Sep-28 21:30N 35°29' E 139°50'5 9.8
2017-Sep-28 21:00N 35°34' E 139°51'4 6.6
2017-Sep-28 20:25N 35°37' E 139°48'0 0.0
2017-Sep-28 19:55N 35°37' E 139°48'0 0.0
2017-Sep-28 19:19N 35°37' E 139°48'0 0.0
2017-Sep-28 18:49N 35°37' E 139°48'0 0.0
2017-Sep-28 18:25N 35°37' E 139°48'0 0.0
2017-Sep-28 16:52N 35°37' E 139°48'0 0.0
2017-Sep-28 16:17N 35°37' E 139°48'0 0.0
2017-Sep-28 15:58N 35°37' E 139°48'0 0.0
2017-Sep-27 19:31N 35°37' E 139°48'0 0.0
2017-Sep-27 19:25N 35°37' E 139°48'0 0.0
2017-Sep-27 10:14N 35°37' E 139°48'0 0.8
2017-Sep-27 10:00N 35°37' E 139°48'4 8.5
2017-Sep-27 09:30N 35°34' E 139°51'510.2
2017-Sep-27 09:00N 35°29' E 139°52'510.4
2017-Sep-27 08:30N 35°24' E 139°50'3 5.4
2017-Sep-27 08:00N 35°21' E 139°51'0 0.0
2017-Sep-27 07:30N 35°21' E 139°51'0 0.0
2017-Sep-27 06:51N 35°21' E 139°51'0 0.0
2017-Sep-27 06:09N 35°21' E 139°51'0 0.0
2017-Sep-27 06:00N 35°21' E 139°51'0 0.0
2017-Sep-27 05:21N 35°21' E 139°51'0 0.0
2017-Sep-27 04:57N 35°21' E 139°51'0 0.0
2017-Sep-27 04:24N 35°21' E 139°51'0 0.0
2017-Sep-27 04:00N 35°21' E 139°51'0 0.0
2017-Sep-27 03:27N 35°21' E 139°51'0 0.0
2017-Sep-27 03:00N 35°21' E 139°51'0 0.0
2017-Sep-27 02:30N 35°21' E 139°51'0 0.0
2017-Sep-27 02:00N 35°21' E 139°51'0 0.0
2017-Sep-27 01:30N 35°21' E 139°51'0 0.0
2017-Sep-27 01:00N 35°21' E 139°51'0 0.0
2017-Sep-27 00:27N 35°21' E 139°51'0 0.0
2017-Sep-26 23:48N 35°21' E 139°51'0 0.0
2017-Sep-26 23:12N 35°21' E 139°51'0 0.0
2017-Sep-26 23:00N 35°21' E 139°51'0 0.0
2017-Sep-26 22:30N 35°21' E 139°51'0 0.0
2017-Sep-26 21:57N 35°21' E 139°51'0 0.0
2017-Sep-26 21:30N 35°21' E 139°51'0 0.0
2017-Sep-26 20:00N 35°21' E 139°51'0 0.0
2017-Sep-26 18:33N 35°21' E 139°51'0 0.1
2017-Sep-26 18:30N 35°21' E 139°51'0 0.0
2017-Sep-26 17:57N 35°21' E 139°51'0 0.0
2017-Sep-26 17:27N 35°21' E 139°51'0 0.0
2017-Sep-26 16:57N 35°21' E 139°51'0 0.0
2017-Sep-26 16:30N 35°21' E 139°51'0 0.0
2017-Sep-26 16:00N 35°21' E 139°51'0 0.0
2017-Sep-26 15:27N 35°21' E 139°51'0 0.0
2017-Sep-26 14:21N 35°21' E 139°51'0 0.0
2017-Sep-26 13:57N 35°21' E 139°51'0 0.0
2017-Sep-26 13:27N 35°21' E 139°51'0 0.0
2017-Sep-26 12:57N 35°21' E 139°51'0 0.0
2017-Sep-26 12:27N 35°21' E 139°51'0 0.0
2017-Sep-26 11:54N 35°21' E 139°51'0 0.0
2017-Sep-26 11:30N 35°21' E 139°51'0 0.0
2017-Sep-26 11:00N 35°21' E 139°51'0 0.0
2017-Sep-26 10:30N 35°21' E 139°51'0 0.0
2017-Sep-26 10:00N 35°21' E 139°51'0 0.0
2017-Sep-26 09:30N 35°21' E 139°51'0 0.0
2017-Sep-26 09:00N 35°21' E 139°51'0 0.0
2017-Sep-26 08:30N 35°21' E 139°51'0 0.0
2017-Sep-26 08:00N 35°21' E 139°51'0 0.0
2017-Sep-26 07:24N 35°21' E 139°51'0 0.0
2017-Sep-26 06:57N 35°21' E 139°51'0 0.0
2017-Sep-26 06:30N 35°21' E 139°51'0 0.0
2017-Sep-26 06:00N 35°21' E 139°51'0 0.0
2017-Sep-26 05:27N 35°21' E 139°51'0 0.0
2017-Sep-26 05:00N 35°21' E 139°51'1 2.5
2017-Sep-26 04:30N 35°22' E 139°50'4 7.4
2017-Sep-26 04:00N 35°22' E 139°45'4 7.1
2017-Sep-26 03:30N 35°19' E 139°43'3 5.1
2017-Sep-26 03:00N 35°19' E 139°39'0 0.0
2017-Sep-26 02:30N 35°19' E 139°39'0 0.0
2017-Sep-26 02:00N 35°19' E 139°39'0 0.0
2017-Sep-26 01:30N 35°19' E 139°39'0 0.0
2017-Sep-26 01:00N 35°19' E 139°39'0 0.0
2017-Sep-26 00:30N 35°19' E 139°39'0 0.0
2017-Sep-26 00:00N 35°19' E 139°39'0 0.0
2017-Sep-25 23:30N 35°19' E 139°39'0 0.5
2017-Sep-25 23:00N 35°19' E 139°40'1 1.2
2017-Sep-25 22:30N 35°19' E 139°40'0 0.0
2017-Sep-25 22:00N 35°19' E 139°40'0 0.1
2017-Sep-25 21:30N 35°19' E 139°41'0 0.0
2017-Sep-25 21:00N 35°19' E 139°41'0 0.0
2017-Sep-25 20:30N 35°19' E 139°41'0 0.0
2017-Sep-25 20:00N 35°19' E 139°41'0 0.1
2017-Sep-25 19:30N 35°19' E 139°41'0 0.0
2017-Sep-25 19:00N 35°19' E 139°41'0 0.0
2017-Sep-25 18:30N 35°19' E 139°41'0 0.0
2017-Sep-25 18:00N 35°19' E 139°41'0 0.0
2017-Sep-25 17:30N 35°19' E 139°41'0 0.0
2017-Sep-25 17:00N 35°19' E 139°41'0 0.0
2017-Sep-25 16:30N 35°19' E 139°41'0 0.0
2017-Sep-25 16:00N 35°19' E 139°41'0 0.0
2017-Sep-25 15:30N 35°19' E 139°41'0 0.1
2017-Sep-25 15:00N 35°19' E 139°40'0 0.0
2017-Sep-25 14:30N 35°19' E 139°40'0 0.1
2017-Sep-25 14:00N 35°19' E 139°41'0 0.0
2017-Sep-25 13:30N 35°19' E 139°41'0 0.0
2017-Sep-25 13:00N 35°19' E 139°41'0 0.0
2017-Sep-25 12:27N 35°19' E 139°41'0 0.0
2017-Sep-25 12:00N 35°19' E 139°41'0 0.0
2017-Sep-25 11:30N 35°19' E 139°41'0 0.0
2017-Sep-25 11:00N 35°19' E 139°41'0 0.0
2017-Sep-25 10:30N 35°19' E 139°41'0 0.0
2017-Sep-25 10:00N 35°19' E 139°41'0 0.0
2017-Sep-25 09:30N 35°19' E 139°41'0 0.0
2017-Sep-25 09:00N 35°19' E 139°41'0 0.1
2017-Sep-25 08:30N 35°19' E 139°40'0 0.1
2017-Sep-25 08:00N 35°19' E 139°41'3 5.2
2017-Sep-25 07:30N 35°19' E 139°44'5 9.8
2017-Sep-25 07:00N 35°14' E 139°47'5 9.5
2017-Sep-25 06:30N 35°10' E 139°46'5 9.5
2017-Sep-25 06:00N 35°06' E 139°43'5 9.6
2017-Sep-25 05:30N 35°02' E 139°39'235 8.3
2017-Sep-24 01:15N 34°02' E 135°03'310.1
2017-Sep-24 00:55N 34°05' E 135°03'4 9.9
2017-Sep-24 00:30N 34°09' E 135°03'5 9.7
2017-Sep-24 00:00N 34°14' E 135°03'5 8.9
2017-Sep-23 23:28N 34°19' E 135°04'6 9.7
2017-Sep-23 22:54N 34°23' E 135°08'510.7
2017-Sep-23 22:26N 34°27' E 135°12'510.5
2017-Sep-23 22:00N 34°30' E 135°16'610.3
2017-Sep-23 21:28N 34°35' E 135°20'510.2
2017-Sep-23 21:00N 34°38' E 135°24'  
Track history (hours):
 
Tides and Currents Weather Stations Pressure Air Temp Water Temp Dewpoint Dewpoint Depression Visibility Wind Speed Wind Dir Waves Ship Positions

Kinjyu Maru

Last reported at 2017-Sep-29 01:36 UTC. Time now 2017-Oct-17 18:58 UTC.
Position N 34°60' E 139°26'.
Warning: this ship's position is 18 days out of date.

Length 59 m; draft 3.8 m.

Type: Cargo ship. MMSI: 431001588.

Date/timePositionNaut miles runAvg speedWind from/ knotsBaromVisibWave heightAir tempDewpointWater temp
2017-Sep-29 01:36N 34°60' E 139°26'2 8.6
2017-Sep-29 01:23N 35°01' E 139°28'3 8.8
2017-Sep-29 01:00N 35°03' E 139°32'5 9.8
2017-Sep-29 00:30N 35°05' E 139°37'510.8
2017-Sep-29 00:00N 35°08' E 139°42'510.6
2017-Sep-28 23:30N 35°12' E 139°46'5 9.9
2017-Sep-28 23:00N 35°17' E 139°45'5 9.8
2017-Sep-28 22:30N 35°22' E 139°42'5 9.6
2017-Sep-28 22:00N 35°26' E 139°45'510.6
2017-Sep-28 21:30N 35°29' E 139°50'5 9.8
2017-Sep-28 21:00N 35°34' E 139°51'4 6.6
2017-Sep-28 20:25N 35°37' E 139°48'0 0.0
2017-Sep-28 19:55N 35°37' E 139°48'0 0.0
2017-Sep-28 19:19N 35°37' E 139°48'0 0.0
2017-Sep-28 18:49N 35°37' E 139°48'0 0.0
2017-Sep-28 18:25N 35°37' E 139°48'0 0.0
2017-Sep-28 16:52N 35°37' E 139°48'0 0.0
2017-Sep-28 16:17N 35°37' E 139°48'0 0.0
2017-Sep-28 15:58N 35°37' E 139°48'0 0.0
2017-Sep-27 19:31N 35°37' E 139°48'0 0.0
2017-Sep-27 19:25N 35°37' E 139°48'0 0.0
2017-Sep-27 10:14N 35°37' E 139°48'0 0.8
2017-Sep-27 10:00N 35°37' E 139°48'4 8.5
2017-Sep-27 09:30N 35°34' E 139°51'510.2
2017-Sep-27 09:00N 35°29' E 139°52'510.4
2017-Sep-27 08:30N 35°24' E 139°50'3 5.4
2017-Sep-27 08:00N 35°21' E 139°51'0 0.0
2017-Sep-27 07:30N 35°21' E 139°51'0 0.0
2017-Sep-27 06:51N 35°21' E 139°51'0 0.0
2017-Sep-27 06:09N 35°21' E 139°51'0 0.0
2017-Sep-27 06:00N 35°21' E 139°51'0 0.0
2017-Sep-27 05:21N 35°21' E 139°51'0 0.0
2017-Sep-27 04:57N 35°21' E 139°51'0 0.0
2017-Sep-27 04:24N 35°21' E 139°51'0 0.0
2017-Sep-27 04:00N 35°21' E 139°51'0 0.0
2017-Sep-27 03:27N 35°21' E 139°51'0 0.0
2017-Sep-27 03:00N 35°21' E 139°51'0 0.0
2017-Sep-27 02:30N 35°21' E 139°51'0 0.0
2017-Sep-27 02:00N 35°21' E 139°51'0 0.0
2017-Sep-27 01:30N 35°21' E 139°51'0 0.0
2017-Sep-27 01:00N 35°21' E 139°51'0 0.0
2017-Sep-27 00:27N 35°21' E 139°51'0 0.0
2017-Sep-26 23:48N 35°21' E 139°51'0 0.0
2017-Sep-26 23:12N 35°21' E 139°51'0 0.0
2017-Sep-26 23:00N 35°21' E 139°51'0 0.0
2017-Sep-26 22:30N 35°21' E 139°51'0 0.0
2017-Sep-26 21:57N 35°21' E 139°51'0 0.0
2017-Sep-26 21:30N 35°21' E 139°51'0 0.0
2017-Sep-26 20:00N 35°21' E 139°51'0 0.0
2017-Sep-26 18:33N 35°21' E 139°51'0 0.1
2017-Sep-26 18:30N 35°21' E 139°51'0 0.0
2017-Sep-26 17:57N 35°21' E 139°51'0 0.0
2017-Sep-26 17:27N 35°21' E 139°51'0 0.0
2017-Sep-26 16:57N 35°21' E 139°51'0 0.0
2017-Sep-26 16:30N 35°21' E 139°51'0 0.0
2017-Sep-26 16:00N 35°21' E 139°51'0 0.0
2017-Sep-26 15:27N 35°21' E 139°51'0 0.0
2017-Sep-26 14:21N 35°21' E 139°51'0 0.0
2017-Sep-26 13:57N 35°21' E 139°51'0 0.0
2017-Sep-26 13:27N 35°21' E 139°51'0 0.0
2017-Sep-26 12:57N 35°21' E 139°51'0 0.0
2017-Sep-26 12:27N 35°21' E 139°51'0 0.0
2017-Sep-26 11:54N 35°21' E 139°51'0 0.0
2017-Sep-26 11:30N 35°21' E 139°51'0 0.0
2017-Sep-26 11:00N 35°21' E 139°51'0 0.0
2017-Sep-26 10:30N 35°21' E 139°51'0 0.0
2017-Sep-26 10:00N 35°21' E 139°51'0 0.0
2017-Sep-26 09:30N 35°21' E 139°51'0 0.0
2017-Sep-26 09:00N 35°21' E 139°51'0 0.0
2017-Sep-26 08:30N 35°21' E 139°51'0 0.0
2017-Sep-26 08:00N 35°21' E 139°51'0 0.0
2017-Sep-26 07:24N 35°21' E 139°51'0 0.0
2017-Sep-26 06:57N 35°21' E 139°51'0 0.0
2017-Sep-26 06:30N 35°21' E 139°51'0 0.0
2017-Sep-26 06:00N 35°21' E 139°51'0 0.0
2017-Sep-26 05:27N 35°21' E 139°51'0 0.0
2017-Sep-26 05:00N 35°21' E 139°51'1 2.5
2017-Sep-26 04:30N 35°22' E 139°50'4 7.4
2017-Sep-26 04:00N 35°22' E 139°45'4 7.1
2017-Sep-26 03:30N 35°19' E 139°43'3 5.1
2017-Sep-26 03:00N 35°19' E 139°39'0 0.0
2017-Sep-26 02:30N 35°19' E 139°39'0 0.0
2017-Sep-26 02:00N 35°19' E 139°39'0 0.0
2017-Sep-26 01:30N 35°19' E 139°39'0 0.0
2017-Sep-26 01:00N 35°19' E 139°39'0 0.0
2017-Sep-26 00:30N 35°19' E 139°39'0 0.0
2017-Sep-26 00:00N 35°19' E 139°39'0 0.0
2017-Sep-25 23:30N 35°19' E 139°39'0 0.5
2017-Sep-25 23:00N 35°19' E 139°40'1 1.2
2017-Sep-25 22:30N 35°19' E 139°40'0 0.0
2017-Sep-25 22:00N 35°19' E 139°40'0 0.1
2017-Sep-25 21:30N 35°19' E 139°41'0 0.0
2017-Sep-25 21:00N 35°19' E 139°41'0 0.0
2017-Sep-25 20:30N 35°19' E 139°41'0 0.0
2017-Sep-25 20:00N 35°19' E 139°41'0 0.1
2017-Sep-25 19:30N 35°19' E 139°41'0 0.0
2017-Sep-25 19:00N 35°19' E 139°41'0 0.0
2017-Sep-25 18:30N 35°19' E 139°41'0 0.0
2017-Sep-25 18:00N 35°19' E 139°41'0 0.0
2017-Sep-25 17:30N 35°19' E 139°41'0 0.0
2017-Sep-25 17:00N 35°19' E 139°41'0 0.0
2017-Sep-25 16:30N 35°19' E 139°41'0 0.0
2017-Sep-25 16:00N 35°19' E 139°41'0 0.0
2017-Sep-25 15:30N 35°19' E 139°41'0 0.1
2017-Sep-25 15:00N 35°19' E 139°40'0 0.0
2017-Sep-25 14:30N 35°19' E 139°40'0 0.1
2017-Sep-25 14:00N 35°19' E 139°41'0 0.0
2017-Sep-25 13:30N 35°19' E 139°41'0 0.0
2017-Sep-25 13:00N 35°19' E 139°41'0 0.0
2017-Sep-25 12:27N 35°19' E 139°41'0 0.0
2017-Sep-25 12:00N 35°19' E 139°41'0 0.0
2017-Sep-25 11:30N 35°19' E 139°41'0 0.0
2017-Sep-25 11:00N 35°19' E 139°41'0 0.0
2017-Sep-25 10:30N 35°19' E 139°41'0 0.0
2017-Sep-25 10:00N 35°19' E 139°41'0 0.0
2017-Sep-25 09:30N 35°19' E 139°41'0 0.0
2017-Sep-25 09:00N 35°19' E 139°41'0 0.1
2017-Sep-25 08:30N 35°19' E 139°40'0 0.1
2017-Sep-25 08:00N 35°19' E 139°41'3 5.2
2017-Sep-25 07:30N 35°19' E 139°44'5 9.8
2017-Sep-25 07:00N 35°14' E 139°47'5 9.5
2017-Sep-25 06:30N 35°10' E 139°46'5 9.5
2017-Sep-25 06:00N 35°06' E 139°43'5 9.6
2017-Sep-25 05:30N 35°02' E 139°39'235 8.3
2017-Sep-24 01:15N 34°02' E 135°03'310.1
2017-Sep-24 00:55N 34°05' E 135°03'4 9.9
2017-Sep-24 00:30N 34°09' E 135°03'5 9.7
2017-Sep-24 00:00N 34°14' E 135°03'5 8.9
2017-Sep-23 23:28N 34°19' E 135°04'6 9.7
2017-Sep-23 22:54N 34°23' E 135°08'510.7
2017-Sep-23 22:26N 34°27' E 135°12'510.5
2017-Sep-23 22:00N 34°30' E 135°16'610.3
2017-Sep-23 21:28N 34°35' E 135°20'510.2
2017-Sep-23 21:00N 34°38' E 135°24'  

Dump ship's entire track history